Terminal Aerodrome Forecast
Issued by NWS

Home | Current Version | Previous Version | Text Only | Print | Product List | Glossary On
Versions: 1 2 3 4 5 6 7 8 9 10 11 12 13 14 15 16 17 18 19 20 21 22 23 24 25 26 27 28 29 30
119
FTUS44 KOHX 282322
TAFCKV
TAF
KCKV 282322Z 2900/2924 25007KT P6SM VCSH SCT025 SCT050
     FM290200 27006KT P6SM VCSH BKN050
     FM290400 28004KT P6SM SCT050
     FM290700 28003KT 4SM BR SCT030
     FM291400 26003KT P6SM SCT030
     FM292000 26007KT P6SM SCT050=

USA.gov is the U.S. government's official web portal to all federal, state and local government web resources and services.